createdAt,value
2018-11-07T00:00:24.435Z,97698.80
2018-11-07T00:02:52.940Z,97698.62
2018-11-07T00:05:21.421Z,97695.95
2018-11-07T00:07:49.964Z,97705.95
2018-11-07T00:10:18.407Z,97699.61
2018-11-07T00:12:46.903Z,97706.47
2018-11-07T00:15:16.229Z,97712.94
2018-11-07T00:17:44.678Z,97718.92
2018-11-07T00:20:13.619Z,97714.77
2018-11-07T00:22:42.091Z,97714.93
2018-11-07T00:25:11.747Z,97716.09
2018-11-07T00:27:41.053Z,97715.10
2018-11-07T00:30:11.283Z,97720.39
2018-11-07T00:32:40.171Z,97720.94
2018-11-07T00:35:10.023Z,97715.61
2018-11-07T00:38:08.969Z,97718.45
2018-11-07T00:40:37.454Z,97716.89
2018-11-07T00:43:06.273Z,97716.88
2018-11-07T00:45:34.824Z,97722.73
2018-11-07T00:48:03.625Z,97716.45
2018-11-07T00:50:32.075Z,97730.39
2018-11-07T00:53:00.561Z,97724.86
2018-11-07T00:55:28.985Z,97729.91
2018-11-07T00:57:57.464Z,97726.87
2018-11-07T01:00:25.928Z,97727.55
2018-11-07T01:02:54.515Z,97722.81
2018-11-07T01:05:22.957Z,97720.21
2018-11-07T01:07:51.452Z,97723.58
2018-11-07T01:10:19.983Z,97725.54
2018-11-07T01:12:48.477Z,97729.53
2018-11-07T01:15:17.007Z,97720.99
2018-11-07T01:17:45.459Z,97719.30
2018-11-07T01:20:14.980Z,97716.41
2018-11-07T01:22:44.315Z,97721.45
2018-11-07T01:25:12.833Z,97721.09
2018-11-07T01:27:41.549Z,97727.45
2018-11-07T01:30:12.061Z,97729.70
2018-11-07T01:32:40.701Z,97733.38
2018-11-07T01:35:09.464Z,97731.41
2018-11-07T01:37:38.099Z,97732.33
2018-11-07T01:40:09.117Z,97725.70
2018-11-07T01:42:37.578Z,97725.38
2018-11-07T01:45:07.232Z,97730.02
2018-11-07T01:47:35.973Z,97728.49
2018-11-07T01:50:05.205Z,97725.77
2018-11-07T01:52:33.684Z,97725.63
2018-11-07T01:55:02.165Z,97728.30
2018-11-07T01:57:30.669Z,97725.22
2018-11-07T02:00:29.569Z,97726.58
2018-11-07T02:02:58.055Z,97730.80
2018-11-07T02:05:26.550Z,97729.22
2018-11-07T02:07:55.055Z,97730.52
2018-11-07T02:10:23.596Z,97736.22
2018-11-07T02:12:52.063Z,97737.45
2018-11-07T02:15:20.984Z,97742.41
2018-11-07T02:17:49.476Z,97748.41
2018-11-07T02:20:17.968Z,97753.10
2018-11-07T02:22:46.444Z,97749.31
2018-11-07T02:25:14.929Z,97756.20
2018-11-07T02:27:43.430Z,97753.91
2018-11-07T02:30:14.327Z,97751.38
2018-11-07T02:32:42.867Z,97751.47
2018-11-07T02:35:11.370Z,97755.21
2018-11-07T02:37:39.905Z,97759.59
2018-11-07T02:40:09.208Z,97764.89
2018-11-07T02:42:37.883Z,97773.22
2018-11-07T02:45:06.654Z,97777.92
2018-11-07T02:47:41.276Z,97770.42
2018-11-07T02:50:10.470Z,97789.98
2018-11-07T02:52:38.939Z,97788.53
2018-11-07T02:55:07.675Z,97797.73
2018-11-07T02:57:36.274Z,97802.65
2018-11-07T03:00:06.344Z,97798.97
2018-11-07T03:02:34.812Z,97792.14
2018-11-07T03:05:03.327Z,97802.28
2018-11-07T03:07:31.768Z,97793.17
2018-11-07T03:10:00.263Z,97797.47
2018-11-07T03:12:29.488Z,97804.57
2018-11-07T03:14:57.924Z,97805.84
2018-11-07T03:17:26.396Z,97797.30
2018-11-07T03:19:54.872Z,97797.31
2018-11-07T03:22:23.356Z,97804.38
2018-11-07T03:24:51.836Z,97803.75
2018-11-07T03:27:20.371Z,97801.59
2018-11-07T03:29:48.833Z,97807.17
2018-11-07T03:32:17.421Z,97805.13
2018-11-07T03:34:45.923Z,97812.78
2018-11-07T03:37:14.411Z,97811.42
2018-11-07T03:39:43.053Z,97809.05
2018-11-07T03:42:11.504Z,97822.18
2018-11-07T03:44:39.993Z,97835.63
2018-11-07T03:47:08.580Z,97830.30
2018-11-07T03:49:37.116Z,97816.67
2018-11-07T03:52:05.570Z,97820.66
2018-11-07T03:54:34.429Z,97816.30
2018-11-07T03:57:02.949Z,97818.78
2018-11-07T03:59:31.541Z,97819.20
2018-11-07T04:01:59.994Z,97816.19
2018-11-07T04:04:28.480Z,97820.62
2018-11-07T04:06:56.961Z,97817.68
2018-11-07T04:09:25.390Z,97823.26
2018-11-07T04:11:53.851Z,97822.27
2018-11-07T04:14:22.335Z,97818.38
2018-11-07T04:16:51.467Z,97819.27
2018-11-07T04:19:19.932Z,97820.77
2018-11-07T04:21:48.471Z,97824.35
2018-11-07T04:24:16.946Z,97820.24
2018-11-07T04:26:45.460Z,97819.97
2018-11-07T04:29:13.932Z,97833.16
2018-11-07T04:31:42.668Z,97836.80
2018-11-07T04:34:11.135Z,97839.48
2018-11-07T04:36:39.644Z,97835.99
2018-11-07T04:39:09.643Z,97833.55
2018-11-07T04:41:38.115Z,97840.59
2018-11-07T04:44:06.787Z,97840.40
2018-11-07T04:46:35.271Z,97839.69
2018-11-07T04:49:04.030Z,97842.74
2018-11-07T04:51:32.655Z,97846.34
2018-11-07T04:54:01.157Z,97834.78
2018-11-07T04:56:29.655Z,97845.64
2018-11-07T04:58:58.136Z,97847.56
2018-11-07T05:01:26.668Z,97855.70
2018-11-07T05:03:55.139Z,97852.55
2018-11-07T05:06:23.716Z,97852.12
2018-11-07T05:08:52.224Z,97853.80
2018-11-07T05:11:20.915Z,97857.50
2018-11-07T05:13:49.420Z,97870.31
2018-11-07T05:16:17.936Z,97871.91
2018-11-07T05:18:46.428Z,97862.02
2018-11-07T05:21:15.076Z,97866.50
2018-11-07T05:23:43.541Z,97873.95
2018-11-07T05:26:12.183Z,97874.16
2018-11-07T05:28:40.625Z,97878.38
2018-11-07T05:31:09.106Z,97886.63
2018-11-07T05:33:37.589Z,97877.05
2018-11-07T05:36:06.984Z,97885.20
2018-11-07T05:38:35.475Z,97886.61
2018-11-07T05:41:03.977Z,97895.00
2018-11-07T05:43:32.429Z,97899.60
2018-11-07T05:46:00.900Z,97887.84
2018-11-07T05:48:29.383Z,97888.09
2018-11-07T05:50:58.111Z,97896.20
2018-11-07T05:53:26.627Z,97896.81
2018-11-07T05:55:55.306Z,97897.11
2018-11-07T05:58:24.280Z,97904.66
2018-11-07T06:00:52.845Z,97902.85
2018-11-07T06:03:21.345Z,97899.83
2018-11-07T06:05:49.887Z,97901.62
2018-11-07T06:08:18.370Z,97910.12
2018-11-07T06:10:46.846Z,97915.23
2018-11-07T06:13:15.482Z,97916.61
2018-11-07T06:15:43.964Z,97918.83
2018-11-07T06:18:12.689Z,97919.76
2018-11-07T06:20:41.168Z,97928.19
2018-11-07T06:23:09.696Z,97929.69
2018-11-07T06:25:38.511Z,97933.47
2018-11-07T06:28:07.064Z,97933.57
2018-11-07T06:30:35.721Z,97931.59
2018-11-07T06:33:04.204Z,97938.62
2018-11-07T06:35:32.716Z,97942.99
2018-11-07T06:38:01.348Z,97935.70
2018-11-07T06:40:29.836Z,97935.88
2018-11-07T06:42:58.320Z,97946.23
2018-11-07T06:45:26.821Z,97946.99
2018-11-07T06:47:55.404Z,97948.12
2018-11-07T06:50:23.893Z,97939.03
2018-11-07T06:52:52.411Z,97935.09
2018-11-07T06:55:20.931Z,97928.95
2018-11-07T06:57:49.419Z,97928.20
2018-11-07T07:00:18.448Z,97929.33
2018-11-07T07:02:47.940Z,97930.34
2018-11-07T07:05:16.739Z,97929.38
2018-11-07T07:07:45.284Z,97936.34
2018-11-07T07:10:15.214Z,97941.18
2018-11-07T07:12:43.707Z,97943.26
2018-11-07T07:15:13.829Z,97938.54
2018-11-07T07:17:42.457Z,97931.59
2018-11-07T07:20:13.688Z,97926.03
2018-11-07T07:22:42.918Z,97929.61
2018-11-07T07:25:12.423Z,97930.46
2018-11-07T07:27:41.654Z,97932.95
2018-11-07T07:30:12.850Z,97923.83
2018-11-07T07:32:42.148Z,97922.01
2018-11-07T07:35:10.785Z,97909.98
2018-11-07T07:37:39.531Z,97910.20
2018-11-07T07:40:09.603Z,97914.38
2018-11-07T07:42:38.834Z,97910.52
2018-11-07T07:45:09.415Z,97909.02
2018-11-07T07:47:38.212Z,97908.84
2018-11-07T07:50:08.278Z,97906.33
2018-11-07T07:52:36.748Z,97901.83
2018-11-07T07:55:05.588Z,97905.97
2018-11-07T07:57:34.059Z,97899.53
2018-11-07T08:00:02.573Z,97898.31
2018-11-07T08:02:31.124Z,97902.25
2018-11-07T08:04:59.612Z,97898.44
2018-11-07T08:07:28.125Z,97899.54
2018-11-07T08:09:56.614Z,97907.95
2018-11-07T08:12:25.136Z,97899.64
2018-11-07T08:14:53.615Z,97902.00
2018-11-07T08:17:22.120Z,97897.64
2018-11-07T08:19:50.699Z,97895.21
2018-11-07T08:22:19.236Z,97898.89
2018-11-07T08:24:47.691Z,97896.81
2018-11-07T08:27:16.126Z,97887.79
2018-11-07T08:29:44.592Z,97886.16
2018-11-07T08:32:13.083Z,97886.02
2018-11-07T08:34:41.596Z,97879.94
2018-11-07T08:37:10.122Z,97884.06
2018-11-07T08:39:38.588Z,97879.52
2018-11-07T08:42:07.119Z,97881.11
2018-11-07T08:44:35.551Z,97879.52
2018-11-07T08:47:04.020Z,97877.60
2018-11-07T08:49:32.496Z,97865.52
2018-11-07T08:52:00.936Z,97879.84
2018-11-07T08:54:29.424Z,97877.47
2018-11-07T08:56:58.296Z,97876.45
2018-11-07T08:59:26.852Z,97875.80
2018-11-07T09:01:55.329Z,97874.02
2018-11-07T09:04:23.817Z,97876.03
2018-11-07T09:06:52.293Z,97873.51
2018-11-07T09:09:20.875Z,97875.84
2018-11-07T09:11:49.427Z,97874.69
2018-11-07T09:14:17.921Z,97875.84
2018-11-07T09:16:46.417Z,97868.30
2018-11-07T09:19:15.173Z,97861.99
2018-11-07T09:21:43.760Z,97863.28
2018-11-07T09:24:12.887Z,97863.48
2018-11-07T09:26:42.051Z,97852.77
2018-11-07T09:29:10.585Z,97855.19
2018-11-07T09:31:39.199Z,97856.30
2018-11-07T09:34:07.684Z,97852.09
2018-11-07T09:36:36.144Z,97849.46
2018-11-07T09:39:07.007Z,97838.63
2018-11-07T09:41:35.506Z,97846.45
2018-11-07T09:44:04.351Z,97845.98
2018-11-07T09:46:33.539Z,97832.22
2018-11-07T09:49:02.043Z,97836.27
2018-11-07T09:51:31.163Z,97832.12
2018-11-07T09:54:00.485Z,97819.11
2018-11-07T09:56:28.871Z,97816.41
2018-11-07T09:58:57.393Z,97816.47
2018-11-07T10:01:26.365Z,97808.23
2018-11-07T10:03:55.089Z,97803.60
2018-11-07T10:06:23.644Z,97803.16
2018-11-07T10:08:52.089Z,97799.44
2018-11-07T10:11:20.605Z,97794.27
2018-11-07T10:13:49.104Z,97793.38
2018-11-07T10:16:17.653Z,97795.27
2018-11-07T10:18:46.119Z,97793.10
2018-11-07T10:21:14.631Z,97798.19
2018-11-07T10:23:43.160Z,97797.02
2018-11-07T10:26:11.669Z,97800.98
2018-11-07T10:28:40.358Z,97800.47
2018-11-07T10:31:08.832Z,97797.69
2018-11-07T10:33:37.564Z,97802.44
2018-11-07T10:36:06.026Z,97796.08
2018-11-07T10:38:34.767Z,97799.86
2018-11-07T10:41:03.145Z,97795.06
2018-11-07T10:43:31.687Z,97795.05
2018-11-07T10:46:00.217Z,97787.41
2018-11-07T10:48:28.669Z,97786.08
2018-11-07T10:50:57.137Z,97788.55
2018-11-07T10:53:25.608Z,97783.36
2018-11-07T10:55:54.131Z,97774.13
2018-11-07T10:58:22.679Z,97772.08
2018-11-07T11:00:56.474Z,97775.33
2018-11-07T11:03:30.339Z,97772.16
2018-11-07T11:05:59.032Z,97767.22
2018-11-07T11:08:27.780Z,97770.84
2018-11-07T11:10:56.260Z,97766.83
2018-11-07T11:13:25.911Z,97763.38
2018-11-07T11:15:54.376Z,97765.30
2018-11-07T11:18:22.843Z,97759.30
2018-11-07T11:20:51.364Z,97771.30
2018-11-07T11:23:19.916Z,97764.58
2018-11-07T11:25:48.436Z,97766.59
2018-11-07T11:28:16.898Z,97763.52
2018-11-07T11:30:45.664Z,97758.72
2018-11-07T11:33:14.804Z,97758.77
2018-11-07T11:35:43.287Z,97757.81
2018-11-07T11:38:11.774Z,97755.73
2018-11-07T11:40:40.263Z,97754.31
2018-11-07T11:43:09.015Z,97752.09
2018-11-07T11:45:37.530Z,97754.64
2018-11-07T11:48:06.356Z,97747.02
2018-11-07T11:50:34.836Z,97752.64
2018-11-07T11:53:03.348Z,97750.30
2018-11-07T11:55:31.840Z,97753.95
2018-11-07T11:58:00.326Z,97759.88
2018-11-07T12:00:29.010Z,97751.52
2018-11-07T12:02:57.738Z,97753.39
2018-11-07T12:05:26.401Z,97752.70
2018-11-07T12:07:54.875Z,97752.11
2018-11-07T12:10:24.841Z,97749.82
2018-11-07T12:12:54.656Z,97749.91
2018-11-07T12:15:24.487Z,97751.67
2018-11-07T12:17:53.642Z,97748.43
2018-11-07T12:20:22.630Z,97751.77
2018-11-07T12:22:51.686Z,97745.98
2018-11-07T12:25:21.064Z,97755.86
2018-11-07T12:27:49.571Z,97746.18
2018-11-07T12:30:20.822Z,97761.72
2018-11-07T12:32:50.303Z,97748.39
2018-11-07T12:35:19.272Z,97745.91
2018-11-07T12:37:48.159Z,97750.17
2018-11-07T12:40:17.180Z,97742.88
2018-11-07T12:42:46.265Z,97745.59
2018-11-07T12:45:15.789Z,97744.03
2018-11-07T12:47:44.320Z,97742.69
2018-11-07T12:50:15.233Z,97746.45
2018-11-07T12:52:44.657Z,97745.44
2018-11-07T12:55:13.624Z,97744.28
2018-11-07T12:57:42.545Z,97748.92
2018-11-07T13:00:14.575Z,97741.38
2018-11-07T13:02:43.132Z,97738.05
2018-11-07T13:05:13.316Z,97751.53
2018-11-07T13:07:42.594Z,97761.39
2018-11-07T13:10:14.235Z,97762.61
2018-11-07T13:12:43.888Z,97765.96
2018-11-07T13:15:12.983Z,97756.25
2018-11-07T13:17:41.721Z,97756.17
2018-11-07T13:20:13.364Z,97706.11
2018-11-07T13:22:42.709Z,97760.37
2018-11-07T13:25:12.340Z,97768.02
2018-11-07T13:27:41.020Z,97774.64
2018-11-07T13:30:12.084Z,97773.98
2018-11-07T13:32:41.143Z,97770.56
2018-11-07T13:35:10.759Z,97771.78
2018-11-07T13:37:40.409Z,97768.63
2018-11-07T13:40:12.437Z,97769.51
2018-11-07T13:42:41.475Z,97767.70
2018-11-07T13:45:12.112Z,97771.03
2018-11-07T13:47:41.789Z,97781.59
2018-11-07T13:50:11.189Z,97782.63
2018-11-07T13:52:40.218Z,97776.03
2018-11-07T13:55:10.119Z,97785.80
2018-11-07T13:57:39.423Z,97783.74
2018-11-07T14:00:13.232Z,97782.59
2018-11-07T14:02:41.828Z,97784.39
2018-11-07T14:05:11.331Z,97787.23
2018-11-07T14:07:40.231Z,97790.80
2018-11-07T14:10:11.771Z,97784.43
2018-11-07T14:12:41.009Z,97790.37
2018-11-07T14:15:12.447Z,97791.45
2018-11-07T14:17:41.576Z,97792.41
2018-11-07T14:20:10.392Z,97793.61
2018-11-07T14:22:39.511Z,97797.11
2018-11-07T14:25:09.238Z,97796.00
2018-11-07T14:27:38.217Z,97799.91
2018-11-07T14:30:11.131Z,97796.59
2018-11-07T14:32:45.746Z,97799.42
2018-11-07T14:35:14.645Z,97804.34
2018-11-07T14:37:43.356Z,97810.14
2018-11-07T14:40:11.966Z,97807.02
2018-11-07T14:42:40.739Z,97818.15
2018-11-07T14:45:10.882Z,97815.59
2018-11-07T14:47:39.931Z,97817.07
2018-11-07T14:50:09.516Z,97809.97
2018-11-07T14:52:38.539Z,97808.98
2018-11-07T14:55:09.004Z,97815.52
2018-11-07T14:57:37.813Z,97813.72
2018-11-07T15:00:12.452Z,97816.55
2018-11-07T15:02:42.339Z,97812.55
2018-11-07T15:05:12.255Z,97811.88
2018-11-07T15:07:41.373Z,97818.46
2018-11-07T15:10:11.024Z,97808.03
2018-11-07T15:12:39.709Z,97817.20
2018-11-07T15:15:10.242Z,97815.48
2018-11-07T15:17:38.688Z,97810.59
2018-11-07T15:20:08.278Z,97815.44
2018-11-07T15:22:36.818Z,97816.78
2018-11-07T15:25:06.059Z,97820.30
2018-11-07T15:27:34.739Z,97815.80
2018-11-07T15:30:03.488Z,97816.23
2018-11-07T15:32:31.980Z,97815.80
2018-11-07T15:35:00.437Z,97813.09
2018-11-07T15:37:28.965Z,97813.77
2018-11-07T15:39:58.453Z,97816.34
2018-11-07T15:42:26.992Z,97812.31
2018-11-07T15:44:55.460Z,97822.23
2018-11-07T15:47:23.996Z,97821.46
2018-11-07T15:49:57.638Z,97830.87
2018-11-07T15:52:26.177Z,97831.16
2018-11-07T15:54:54.635Z,97836.64
2018-11-07T15:57:23.120Z,97834.06
2018-11-07T15:59:51.616Z,97834.58
2018-11-07T16:02:20.207Z,97832.89
2018-11-07T16:04:48.675Z,97836.48
2018-11-07T16:07:17.269Z,97843.80
2018-11-07T16:09:45.741Z,97843.23
2018-11-07T16:12:14.204Z,97843.66
2018-11-07T16:14:42.672Z,97843.23
2018-11-07T16:17:11.164Z,97847.83
2018-11-07T16:19:40.016Z,97852.23
2018-11-07T16:22:08.609Z,97854.30
2018-11-07T16:24:37.080Z,97852.77
2018-11-07T16:27:06.108Z,97857.11
2018-11-07T16:29:34.573Z,97861.13
2018-11-07T16:32:03.176Z,97859.64
2018-11-07T16:34:31.637Z,97862.75
2018-11-07T16:37:00.179Z,97865.80
2018-11-07T16:39:28.630Z,97877.36
2018-11-07T16:42:03.465Z,97873.17
2018-11-07T16:44:32.032Z,97871.64
2018-11-07T16:47:00.510Z,97876.52
2018-11-07T16:49:29.003Z,97871.34
2018-11-07T16:51:57.486Z,97878.45
2018-11-07T16:54:25.994Z,97883.96
2018-11-07T16:56:54.467Z,97884.61
2018-11-07T16:59:22.943Z,97885.66
2018-11-07T17:01:51.468Z,97862.15
2018-11-07T17:04:20.234Z,97885.28
2018-11-07T17:06:48.762Z,97885.97
2018-11-07T17:09:17.247Z,97892.64
2018-11-07T17:11:45.731Z,97883.80
2018-11-07T17:14:14.513Z,97892.30
2018-11-07T17:16:43.026Z,97892.00
2018-11-07T17:19:12.029Z,97893.95
2018-11-07T17:21:40.821Z,97892.81
2018-11-07T17:24:09.391Z,97901.14
2018-11-07T17:26:37.869Z,97904.65
2018-11-07T17:29:06.475Z,97899.80
2018-11-07T17:31:34.955Z,97901.83
2018-11-07T17:34:03.804Z,97905.64
2018-11-07T17:36:32.515Z,97905.62
2018-11-07T17:39:01.021Z,97902.15
2018-11-07T17:41:29.508Z,97909.47
2018-11-07T17:43:58.105Z,97908.98
2018-11-07T17:46:26.596Z,97901.91
2018-11-07T17:48:55.089Z,97905.93
2018-11-07T17:51:23.597Z,97906.96
2018-11-07T17:53:52.135Z,97908.84
2018-11-07T17:56:20.920Z,97912.53
2018-11-07T17:58:49.614Z,97915.72
2018-11-07T18:01:18.384Z,97915.39
2018-11-07T18:03:46.880Z,97916.06
2018-11-07T18:06:15.435Z,97915.56
2018-11-07T18:08:44.127Z,97914.30
2018-11-07T18:11:12.930Z,97921.80
2018-11-07T18:13:42.241Z,97918.63
2018-11-07T18:16:10.802Z,97923.57
2018-11-07T18:18:40.286Z,97927.78
2018-11-07T18:21:08.911Z,97926.85
2018-11-07T18:23:37.774Z,97930.50
2018-11-07T18:26:06.616Z,97926.46
2018-11-07T18:28:35.387Z,97930.50
2018-11-07T18:31:04.372Z,97927.16
2018-11-07T18:33:32.960Z,97927.69
2018-11-07T18:36:01.765Z,97932.76
2018-11-07T18:38:30.383Z,97938.08
2018-11-07T18:40:59.641Z,97936.30
2018-11-07T18:43:28.157Z,97940.14
2018-11-07T18:45:56.663Z,97939.42
2018-11-07T18:48:25.411Z,97946.64
2018-11-07T18:50:54.235Z,97947.34
2018-11-07T18:53:22.693Z,97946.78
2018-11-07T18:55:51.207Z,97946.13
2018-11-07T18:58:19.707Z,97955.73
2018-11-07T19:00:48.714Z,97950.11
2018-11-07T19:03:17.227Z,97950.61
2018-11-07T19:05:45.818Z,97955.07
2018-11-07T19:08:14.678Z,97960.42
2018-11-07T19:10:43.954Z,97964.88
2018-11-07T19:13:12.468Z,97962.06
2018-11-07T19:15:40.959Z,97962.86
2018-11-07T19:18:10.402Z,97960.89
2018-11-07T19:20:38.962Z,97967.16
2018-11-07T19:23:07.405Z,97968.94
2018-11-07T19:25:35.878Z,97966.14
2018-11-07T19:28:04.877Z,97962.95
2018-11-07T19:30:33.360Z,97970.17
2018-11-07T19:33:02.227Z,97971.17
2018-11-07T19:35:30.933Z,97974.23
2018-11-07T19:37:59.625Z,97978.06
2018-11-07T19:40:28.468Z,97983.17
2018-11-07T19:42:56.912Z,97990.47
2018-11-07T19:45:25.401Z,97979.22
2018-11-07T19:47:53.947Z,97985.81
2018-11-07T19:50:23.523Z,97987.72
2018-11-07T19:52:52.847Z,98002.00
2018-11-07T19:55:23.100Z,97996.03
2018-11-07T19:57:54.430Z,97996.18
2018-11-07T20:00:23.225Z,98001.21
2018-11-07T20:02:51.896Z,98001.38
2018-11-07T20:05:20.647Z,97997.05
2018-11-07T20:07:49.170Z,98003.13
2018-11-07T20:10:19.528Z,98006.03
2018-11-07T20:12:48.495Z,98009.88
2018-11-07T20:15:18.487Z,98009.88
2018-11-07T20:17:47.204Z,98014.48
2018-11-07T20:20:16.087Z,98015.09
2018-11-07T20:22:44.812Z,98020.78
2018-11-07T20:25:14.049Z,98018.55
2018-11-07T20:27:43.263Z,98025.91
2018-11-07T20:30:13.649Z,98034.85
2018-11-07T20:32:42.848Z,98038.12
2018-11-07T20:35:12.936Z,98034.95
2018-11-07T20:37:41.959Z,98041.95
2018-11-07T20:40:13.685Z,98045.38
2018-11-07T20:42:42.420Z,98051.41
2018-11-07T20:45:12.004Z,98041.55
2018-11-07T20:47:40.729Z,98043.91
2018-11-07T20:50:12.135Z,98056.72
2018-11-07T20:52:41.128Z,98057.75
2018-11-07T20:55:10.392Z,98066.28
2018-11-07T20:57:38.928Z,98066.55
2018-11-07T21:00:11.889Z,98068.77
2018-11-07T21:02:40.893Z,98066.70
2018-11-07T21:05:09.783Z,98074.11
2018-11-07T21:07:39.627Z,98076.94
2018-11-07T21:10:13.021Z,98092.46
2018-11-07T21:12:42.216Z,98080.56
2018-11-07T21:15:11.886Z,98078.14
2018-11-07T21:17:41.507Z,98083.33
2018-11-07T21:20:40.629Z,98086.26
2018-11-07T21:23:09.132Z,98085.14
2018-11-07T21:25:37.615Z,98091.59
2018-11-07T21:28:06.143Z,98097.26
2018-11-07T21:30:34.814Z,98098.14
2018-11-07T21:33:03.252Z,98104.98
2018-11-07T21:35:31.709Z,98101.41
2018-11-07T21:38:00.180Z,98101.19
2018-11-07T21:40:28.676Z,98098.91
2018-11-07T21:42:57.215Z,98106.58
2018-11-07T21:45:25.743Z,98115.16
2018-11-07T21:47:54.230Z,98113.66
2018-11-07T21:50:22.745Z,98125.55
2018-11-07T21:52:51.259Z,98124.74
2018-11-07T21:55:19.747Z,98122.03
2018-11-07T21:57:48.775Z,98125.24
2018-11-07T22:00:18.615Z,98126.87
2018-11-07T22:02:47.325Z,98133.95
2018-11-07T22:05:17.021Z,98133.72
2018-11-07T22:07:46.728Z,98134.64
2018-11-07T22:10:16.786Z,98139.19
2018-11-07T22:12:45.611Z,98143.16
2018-11-07T22:15:14.139Z,98145.06
2018-11-07T22:17:42.591Z,98144.88
2018-11-07T22:20:14.132Z,98151.59
2018-11-07T22:22:42.958Z,98149.71
2018-11-07T22:25:11.771Z,98118.28
2018-11-07T22:27:40.235Z,98152.70
2018-11-07T22:30:10.757Z,98145.47
2018-11-07T22:32:39.982Z,98158.80
2018-11-07T22:35:10.149Z,98156.31
2018-11-07T22:37:38.673Z,98157.81
2018-11-07T22:40:09.040Z,98165.53
2018-11-07T22:42:37.548Z,98166.97
2018-11-07T22:45:06.755Z,98176.78
2018-11-07T22:47:35.784Z,98179.77
2018-11-07T22:50:04.484Z,98181.97
2018-11-07T22:52:32.981Z,98197.12
2018-11-07T22:55:01.496Z,98203.55
2018-11-07T22:57:30.017Z,98212.87
2018-11-07T22:59:58.690Z,98211.00
2018-11-07T23:02:27.194Z,98199.91
2018-11-07T23:05:58.249Z,98217.95
2018-11-07T23:08:27.000Z,98227.80
2018-11-07T23:10:55.474Z,98228.27
2018-11-07T23:13:24.396Z,98233.63
2018-11-07T23:15:52.911Z,98229.39
2018-11-07T23:18:21.696Z,98229.67
2018-11-07T23:20:50.157Z,98230.94
2018-11-07T23:23:18.621Z,98228.80
2018-11-07T23:25:47.534Z,98228.94
2018-11-07T23:28:16.036Z,98227.92
2018-11-07T23:30:44.640Z,98226.89
2018-11-07T23:33:13.104Z,98221.44
2018-11-07T23:35:41.597Z,98214.58
2018-11-07T23:38:10.074Z,98219.68
2018-11-07T23:40:38.573Z,98226.41
2018-11-07T23:43:07.061Z,98228.20
2018-11-07T23:45:35.572Z,98246.63
2018-11-07T23:48:04.041Z,98255.06
2018-11-07T23:50:32.535Z,98258.09
2018-11-07T23:53:01.033Z,98265.38
2018-11-07T23:55:29.504Z,98264.28
2018-11-07T23:57:58.220Z,98271.27
